Time;durP1;ratioP1;P1;durP2;ratioP2;P2;SDS_P1;SDS_P2;PMS_P1;PMS_P2;Temp;Humidity;BMP_temperature;BMP_pressure;BME280_temperature;BME280_humidity;BME280_pressure;Samples;Min_cycle;Max_cycle;Signal;HPM_P1;HPM_P2
2021/03/31 00:01:21;;;;;;;26.15;21.35;;;11.40;55.60;;;;;;5131601;27;20069;-75
2021/03/31 00:03:47;;;;;;;22.60;20.13;;;11.30;55.60;;;;;;5133987;27;20435;-75
2021/03/31 00:06:13;;;;;;;27.05;20.48;;;11.30;55.70;;;;;;5135383;27;20031;-74
2021/03/31 00:08:39;;;;;;;28.42;21.13;;;11.20;55.70;;;;;;5116591;27;20135;-74
2021/03/31 00:11:05;;;;;;;23.20;19.52;;;11.20;55.70;;;;;;5115360;27;20062;-74
2021/03/31 00:13:31;;;;;;;24.48;19.80;;;11.20;55.70;;;;;;5133088;27;20424;-73
2021/03/31 00:15:57;;;;;;;26.58;20.65;;;11.20;55.70;;;;;;5114021;27;20035;-73
2021/03/31 00:18:23;;;;;;;23.27;19.75;;;11.10;55.60;;;;;;5114652;27;20352;-73
2021/03/31 00:20:49;;;;;;;26.15;20.48;;;11.10;55.60;;;;;;5115044;27;20043;-73
2021/03/31 00:23:15;;;;;;;27.27;21.00;;;11.10;55.70;;;;;;5114062;27;20046;-73
2021/03/31 00:25:41;;;;;;;25.23;19.48;;;11.10;55.80;;;;;;5132906;27;20145;-74
2021/03/31 00:28:09;;;;;;;24.83;19.67;;;11.00;55.90;;;;;;5095497;27;20043;-75
2021/03/31 00:30:35;;;;;;;22.77;19.08;;;11.00;55.90;;;;;;5135609;27;20107;-75
2021/03/31 00:33:02;;;;;;;24.00;19.80;;;11.00;56.00;;;;;;5114803;27;20114;-74
2021/03/31 00:35:28;;;;;;;23.15;19.33;;;11.00;56.10;;;;;;5134653;27;20042;-74
2021/03/31 00:37:54;;;;;;;25.02;20.33;;;11.00;56.10;;;;;;5115043;27;20051;-74
2021/03/31 00:40:20;;;;;;;22.52;18.38;;;10.90;56.10;;;;;;5135497;27;20050;-74
2021/03/31 00:42:46;;;;;;;27.13;19.15;;;10.90;56.20;;;;;;5102397;28;20097;-74
2021/03/31 00:45:13;;;;;;;24.88;20.50;;;10.90;56.20;;;;;;5114310;27;20079;-74
2021/03/31 00:47:39;;;;;;;23.33;19.30;;;10.80;56.20;;;;;;5135207;27;20043;-75
2021/03/31 00:50:06;;;;;;;23.98;20.20;;;10.80;57.00;;;;;;5116351;27;20043;-74
2021/03/31 00:52:32;;;;;;;23.90;19.35;;;10.80;56.30;;;;;;5135598;27;20050;-74
2021/03/31 00:54:58;;;;;;;23.08;18.05;;;10.80;56.40;;;;;;5116931;27;20040;-74
2021/03/31 00:57:24;;;;;;;24.27;19.50;;;10.70;56.30;;;;;;5117056;27;20065;-74
2021/03/31 00:59:50;;;;;;;24.77;18.90;;;10.70;56.40;;;;;;5117078;27;20126;-73
2021/03/31 01:02:15;;;;;;;23.38;19.02;;;10.70;56.50;;;;;;5116425;27;20054;-74
2021/03/31 01:04:46;;;;;;;24.63;17.77;;;10.70;56.50;;;;;;5085528;28;20499;-74
2021/03/31 01:07:12;;;;;;;24.90;20.27;;;10.60;56.50;;;;;;5114164;28;20071;-74
2021/03/31 01:09:38;;;;;;;23.85;19.67;;;10.60;56.50;;;;;;5114759;28;20066;-74
2021/03/31 01:12:19;;;;;;;21.63;17.73;;;10.60;56.60;;;;;;5095689;28;20067;-74
2021/03/31 01:15:10;;;;;;;24.00;18.88;;;10.50;56.80;;;;;;5080623;28;20062;-74
2021/03/31 01:17:42;;;;;;;21.48;18.45;;;10.50;57.10;;;;;;5114487;28;20059;-74
2021/03/31 01:20:07;;;;;;;22.60;18.40;;;10.50;56.90;;;;;;5095841;28;20040;-74
2021/03/31 01:22:52;;;;;;;23.63;19.27;;;10.50;56.80;;;;;;5114692;28;20052;-74
2021/03/31 01:25:37;;;;;;;23.33;18.23;;;10.50;57.40;;;;;;5114055;28;20054;-74
2021/03/31 01:28:48;;;;;;;24.92;18.13;;;10.40;57.40;;;;;;5097145;28;20049;-74
2021/03/31 01:31:30;;;;;;;22.48;17.92;;;10.40;57.20;;;;;;5069623;28;20051;-73
2021/03/31 01:34:17;;;;;;;24.00;19.05;;;10.40;57.10;;;;;;5116092;28;20162;-75
2021/03/31 01:36:43;;;;;;;22.00;18.33;;;10.30;57.10;;;;;;5097887;28;20039;-74
2021/03/31 01:39:08;;;;;;;22.80;18.27;;;10.30;57.10;;;;;;5080440;28;20153;-74
2021/03/31 01:41:35;;;;;;;23.27;18.52;;;10.30;57.40;;;;;;5081023;28;20047;-74
2021/03/31 01:44:01;;;;;;;23.55;18.42;;;10.30;57.50;;;;;;5080765;28;20052;-73
2021/03/31 01:46:30;;;;;;;25.10;18.60;;;10.30;57.50;;;;;;5097230;28;20093;-74
2021/03/31 01:48:57;;;;;;;24.33;18.45;;;10.20;57.50;;;;;;5097585;28;20040;-75
2021/03/31 01:51:23;;;;;;;24.42;18.00;;;10.20;57.50;;;;;;5080220;28;20195;-74
2021/03/31 01:53:49;;;;;;;23.48;19.27;;;10.20;57.50;;;;;;5080613;28;20067;-74
2021/03/31 01:56:15;;;;;;;24.42;18.92;;;10.20;57.50;;;;;;5116602;28;20463;-74
2021/03/31 01:58:42;;;;;;;24.83;19.10;;;10.20;57.50;;;;;;5101046;28;20120;-74
2021/03/31 02:01:08;;;;;;;20.80;17.92;;;10.10;57.60;;;;;;5117359;28;20040;-74
2021/03/31 02:03:34;;;;;;;24.17;19.13;;;10.10;57.60;;;;;;5102486;28;20403;-74
2021/03/31 02:06:00;;;;;;;24.88;17.33;;;10.10;57.50;;;;;;5137785;28;20049;-74
2021/03/31 02:08:26;;;;;;;22.45;18.75;;;10.10;57.40;;;;;;5116223;28;20636;-74
2021/03/31 02:10:52;;;;;;;21.08;18.20;;;10.00;57.40;;;;;;5118886;28;20054;-74
2021/03/31 02:13:17;;;;;;;25.48;19.65;;;10.00;57.40;;;;;;5112723;28;20507;-74
2021/03/31 02:15:43;;;;;;;22.25;18.08;;;10.00;57.50;;;;;;5118196;28;20047;-74
2021/03/31 02:18:12;;;;;;;23.63;18.83;;;10.00;57.50;;;;;;5118417;28;20481;-74
2021/03/31 02:20:38;;;;;;;24.55;18.92;;;9.90;57.50;;;;;;5136374;28;20099;-74
2021/03/31 02:23:04;;;;;;;23.83;19.10;;;9.90;57.60;;;;;;5137288;28;20118;-74
2021/03/31 02:25:30;;;;;;;24.92;19.17;;;9.90;57.60;;;;;;5117725;28;20051;-74
2021/03/31 02:27:56;;;;;;;22.70;18.73;;;9.90;57.60;;;;;;5118357;28;20055;-74
2021/03/31 02:30:23;;;;;;;21.27;17.70;;;9.90;57.70;;;;;;5118012;28;20367;-74
2021/03/31 02:32:50;;;;;;;23.48;19.02;;;9.90;57.80;;;;;;5132943;28;20390;-74
2021/03/31 02:35:16;;;;;;;22.45;18.42;;;9.80;57.90;;;;;;5100408;28;20066;-73
2021/03/31 02:37:42;;;;;;;23.20;18.17;;;9.80;58.00;;;;;;5105552;28;20044;-73
2021/03/31 02:40:08;;;;;;;22.15;17.33;;;9.70;58.00;;;;;;5131322;28;20104;-74
2021/03/31 02:42:34;;;;;;;22.35;17.42;;;9.80;58.10;;;;;;5136010;28;20448;-74
2021/03/31 02:45:00;;;;;;;22.23;18.25;;;9.80;58.10;;;;;;5119063;28;20047;-74
2021/03/31 02:47:29;;;;;;;19.88;16.83;;;9.80;58.20;;;;;;5117131;28;20118;-74
2021/03/31 02:50:04;;;;;;;20.65;16.50;;;9.70;58.30;;;;;;5118621;28;20044;-74
2021/03/31 02:52:30;;;;;;;22.08;17.55;;;9.70;59.20;;;;;;5102487;27;20037;-74
2021/03/31 02:54:56;;;;;;;25.05;19.77;;;9.70;58.30;;;;;;5103115;27;20074;-74
2021/03/31 02:57:22;;;;;;;23.65;17.73;;;9.60;58.30;;;;;;5121504;27;20399;-74
2021/03/31 02:59:48;;;;;;;23.15;17.95;;;9.70;58.40;;;;;;5121350;27;20046;-74
2021/03/31 03:02:23;;;;;;;20.77;17.33;;;9.70;58.50;;;;;;5104867;27;20130;-74
2021/03/31 03:04:50;;;;;;;20.50;17.05;;;9.60;58.60;;;;;;5121465;27;20057;-75
2021/03/31 03:07:16;;;;;;;21.00;17.75;;;9.60;58.40;;;;;;5121549;27;20039;-73
2021/03/31 03:09:43;;;;;;;22.55;17.30;;;9.60;58.50;;;;;;5116968;27;20047;-74
2021/03/31 03:12:11;;;;;;;22.58;18.45;;;9.60;58.50;;;;;;5121904;27;20039;-74
2021/03/31 03:14:36;;;;;;;24.17;17.55;;;9.50;58.50;;;;;;5120410;27;20047;-74
2021/03/31 03:17:02;;;;;;;23.13;18.30;;;9.50;58.70;;;;;;5105180;27;20050;-74
2021/03/31 03:19:28;;;;;;;23.50;18.35;;;9.50;58.70;;;;;;5120610;27;20638;-74
2021/03/31 03:21:54;;;;;;;24.08;19.08;;;9.50;58.80;;;;;;5121224;27;20051;-75
2021/03/31 03:24:19;;;;;;;21.10;17.75;;;9.50;58.80;;;;;;5104302;27;20057;-73
2021/03/31 03:26:45;;;;;;;26.35;19.33;;;9.50;58.90;;;;;;5098074;27;20039;-74
2021/03/31 03:29:11;;;;;;;25.05;19.75;;;9.40;58.90;;;;;;5121839;27;20073;-74
2021/03/31 03:31:37;;;;;;;24.55;19.45;;;9.40;58.90;;;;;;5095595;28;20129;-74
2021/03/31 03:34:06;;;;;;;23.55;17.70;;;9.40;58.90;;;;;;5138719;27;20043;-74
2021/03/31 03:36:32;;;;;;;22.58;17.80;;;9.40;58.90;;;;;;5103443;27;20080;-73
2021/03/31 03:38:57;;;;;;;23.40;18.70;;;9.40;59.00;;;;;;5121200;27;20047;-74
2021/03/31 03:41:23;;;;;;;23.70;19.80;;;9.40;59.10;;;;;;5139255;27;20047;-73
2021/03/31 03:43:49;;;;;;;27.83;19.38;;;9.40;59.00;;;;;;5120809;27;20035;-73
2021/03/31 03:46:15;;;;;;;27.25;19.13;;;9.30;59.00;;;;;;5121576;27;20039;-74
2021/03/31 03:48:40;;;;;;;20.73;17.58;;;9.30;59.10;;;;;;5115873;28;20055;-74
2021/03/31 03:51:07;;;;;;;24.65;18.80;;;9.30;59.10;;;;;;5107213;27;20189;-74
2021/03/31 03:53:33;;;;;;;25.98;18.70;;;9.30;59.10;;;;;;5137752;27;20039;-75
2021/03/31 03:56:00;;;;;;;22.88;17.98;;;9.30;59.10;;;;;;5120711;27;20100;-74
2021/03/31 03:58:26;;;;;;;24.48;18.98;;;9.20;59.10;;;;;;5119489;27;20067;-73
2021/03/31 04:00:53;;;;;;;23.95;17.98;;;9.20;59.10;;;;;;5139631;27;20073;-73
2021/03/31 04:03:18;;;;;;;24.52;18.67;;;9.20;59.20;;;;;;5138816;27;20084;-73
2021/03/31 04:05:44;;;;;;;24.10;18.73;;;9.20;59.20;;;;;;5118885;27;20406;-74
2021/03/31 04:08:10;;;;;;;24.98;18.85;;;9.10;59.10;;;;;;5138421;27;20446;-74
2021/03/31 04:10:36;;;;;;;23.75;19.63;;;9.20;59.20;;;;;;5119011;27;20047;-74
2021/03/31 04:13:02;;;;;;;24.20;19.02;;;9.10;59.20;;;;;;5118365;27;20039;-74
2021/03/31 04:15:28;;;;;;;24.17;19.70;;;9.20;59.30;;;;;;5104824;27;20039;-73
2021/03/31 04:17:54;;;;;;;24.15;19.25;;;9.10;59.30;;;;;;5115463;27;20039;-74
2021/03/31 04:20:21;;;;;;;26.02;20.27;;;9.10;59.30;;;;;;5113580;27;20296;-73
2021/03/31 04:22:47;;;;;;;22.00;18.60;;;9.10;59.30;;;;;;5111894;28;20044;-74
2021/03/31 04:25:14;;;;;;;27.45;19.23;;;9.10;59.40;;;;;;5109204;27;20050;-74
2021/03/31 04:27:40;;;;;;;26.08;19.67;;;9.10;59.40;;;;;;5128878;27;20093;-73
2021/03/31 04:30:07;;;;;;;25.05;19.00;;;9.00;59.40;;;;;;5088413;27;20452;-74
2021/03/31 04:32:33;;;;;;;28.63;19.50;;;9.10;59.50;;;;;;5112182;27;20348;-72
2021/03/31 04:35:03;;;;;;;23.52;19.25;;;9.00;59.50;;;;;;5113738;27;20039;-74
2021/03/31 04:37:29;;;;;;;25.08;19.88;;;9.00;59.60;;;;;;5112078;27;20047;-73
2021/03/31 04:39:55;;;;;;;24.88;19.50;;;9.00;59.60;;;;;;5114011;27;20130;-74
2021/03/31 04:42:21;;;;;;;23.83;19.35;;;9.00;59.60;;;;;;5113367;27;20063;-74
2021/03/31 04:44:46;;;;;;;25.35;20.23;;;9.00;59.60;;;;;;5113112;27;20756;-75
2021/03/31 04:47:12;;;;;;;21.27;18.88;;;9.00;59.70;;;;;;5114026;27;20451;-74
2021/03/31 04:49:38;;;;;;;24.95;19.55;;;8.90;59.70;;;;;;5130324;27;20472;-74
2021/03/31 04:52:04;;;;;;;26.83;20.33;;;9.00;59.70;;;;;;5132340;27;20134;-74
2021/03/31 04:54:30;;;;;;;22.73;19.38;;;8.90;59.80;;;;;;5107376;27;20107;-74
2021/03/31 04:56:55;;;;;;;25.90;20.75;;;8.90;59.80;;;;;;5131949;27;20092;-75
2021/03/31 04:59:21;;;;;;;26.20;20.65;;;8.90;59.80;;;;;;5130820;27;20043;-74
2021/03/31 05:01:47;;;;;;;24.77;21.23;;;8.90;59.90;;;;;;5111690;27;20031;-74
2021/03/31 05:04:12;;;;;;;24.98;19.70;;;8.90;59.90;;;;;;5113681;27;20046;-75
2021/03/31 05:06:38;;;;;;;26.08;20.30;;;8.90;59.90;;;;;;5129673;27;20035;-74
2021/03/31 05:09:05;;;;;;;28.38;21.10;;;8.90;60.60;;;;;;5131019;27;20084;-74
2021/03/31 05:11:31;;;;;;;29.58;21.98;;;8.90;59.90;;;;;;5128281;27;20475;-73
2021/03/31 05:13:57;;;;;;;27.73;22.20;;;8.80;59.90;;;;;;5129378;27;20046;-73
2021/03/31 05:16:23;;;;;;;27.77;22.17;;;8.80;59.90;;;;;;5131185;27;20036;-74
2021/03/31 05:18:48;;;;;;;28.45;21.77;;;8.80;59.90;;;;;;5101958;28;20040;-74
2021/03/31 05:21:14;;;;;;;26.98;21.45;;;8.80;59.90;;;;;;5111908;27;20042;-74
2021/03/31 05:23:40;;;;;;;26.08;20.42;;;8.80;59.90;;;;;;5130840;27;20376;-74
2021/03/31 05:26:05;;;;;;;26.00;21.45;;;8.80;59.90;;;;;;5107817;28;20043;-73
2021/03/31 05:28:32;;;;;;;24.95;22.13;;;8.80;60.00;;;;;;5107115;27;20055;-73
2021/03/31 05:30:57;;;;;;;27.95;21.60;;;8.80;60.00;;;;;;5107840;28;20036;-74
2021/03/31 05:33:23;;;;;;;29.75;21.30;;;8.70;60.00;;;;;;5098533;28;20042;-74
2021/03/31 05:35:49;;;;;;;25.20;21.50;;;8.80;60.10;;;;;;5125749;27;20045;-74
2021/03/31 05:38:15;;;;;;;31.70;21.58;;;8.80;60.10;;;;;;5107372;28;20169;-74
2021/03/31 05:40:40;;;;;;;27.77;22.35;;;8.80;60.20;;;;;;5092005;28;20110;-74
2021/03/31 05:43:06;;;;;;;29.60;22.27;;;8.80;60.30;;;;;;5104514;28;20039;-75
2021/03/31 05:45:33;;;;;;;28.67;22.88;;;8.70;60.30;;;;;;5088047;28;20039;-78
2021/03/31 05:47:59;;;;;;;28.42;22.92;;;8.70;60.30;;;;;;5092616;28;20047;-80
2021/03/31 05:50:26;;;;;;;29.45;23.52;;;8.70;60.50;;;;;;5095907;28;20055;-79
2021/03/31 05:52:52;;;;;;;28.48;22.90;;;8.70;60.50;;;;;;5088826;28;20039;-79
2021/03/31 05:55:18;;;;;;;30.63;24.60;;;8.70;60.50;;;;;;5131527;28;20087;-86
2021/03/31 05:57:44;;;;;;;28.15;22.50;;;8.70;60.70;;;;;;5091854;28;20036;-82
2021/03/31 06:00:12;;;;;;;32.40;22.52;;;8.70;60.80;;;;;;5110104;28;20076;-82
2021/03/31 06:02:41;;;;;;;30.13;23.65;;;8.70;60.90;;;;;;5111143;28;20043;-76
2021/03/31 06:05:08;;;;;;;30.30;23.70;;;8.70;60.80;;;;;;5112313;28;20189;-76
2021/03/31 06:07:34;;;;;;;28.30;23.35;;;8.80;60.80;;;;;;5111788;28;20475;-75
2021/03/31 06:10:09;;;;;;;30.38;23.17;;;8.80;60.80;;;;;;5102802;28;20046;-79
2021/03/31 06:12:36;;;;;;;26.20;22.52;;;8.80;60.80;;;;;;5106477;28;20078;-75
2021/03/31 06:15:10;;;;;;;28.67;21.85;;;8.80;60.80;;;;;;5126540;28;20051;-76
2021/03/31 06:17:46;;;;;;;30.48;24.10;;;8.80;60.80;;;;;;5089588;28;20035;-74
2021/03/31 06:20:13;;;;;;;29.17;23.23;;;8.80;60.90;;;;;;5104439;28;20035;-77
2021/03/31 06:23:06;;;;;;;28.58;21.60;;;8.80;60.70;;;;;;5110095;28;20407;-74
2021/03/31 06:25:28;;;;;;;30.73;21.60;;;8.80;60.70;;;;;;5125374;27;20051;-75
2021/03/31 06:27:55;;;;;;;18.75;13.98;;;8.80;60.70;;;;;;5109179;28;20506;-76
2021/03/31 06:30:24;;;;;;;27.75;21.15;;;9.30;64.30;;;;;;5096164;27;20044;-74
2021/03/31 06:32:52;;;;;;;26.27;21.80;;;9.40;62.20;;;;;;5092426;27;20705;-75
2021/03/31 06:35:23;;;;;;;26.55;20.67;;;9.40;61.20;;;;;;5077274;28;20036;-75
2021/03/31 06:37:49;;;;;;;25.10;21.83;;;9.40;61.00;;;;;;5091955;27;20114;-74
2021/03/31 06:40:33;;;;;;;30.45;22.60;;;9.40;60.90;;;;;;5125521;27;20145;-73
2021/03/31 06:43:26;;;;;;;29.15;22.42;;;9.40;61.00;;;;;;5126986;27;20046;-74
2021/03/31 06:45:57;;;;;;;30.17;23.27;;;9.30;60.90;;;;;;5129682;27;20119;-74
2021/03/31 06:48:23;;;;;;;28.92;22.92;;;9.30;60.70;;;;;;5095141;28;20062;-74
2021/03/31 06:50:49;;;;;;;27.52;23.27;;;9.30;60.70;;;;;;5094461;28;20054;-74
2021/03/31 06:53:24;;;;;;;31.08;23.58;;;9.30;60.70;;;;;;5127620;27;20051;-76
2021/03/31 06:55:57;;;;;;;31.13;22.95;;;9.30;60.80;;;;;;5088078;27;20137;-75
2021/03/31 06:58:23;;;;;;;27.67;22.58;;;9.30;60.70;;;;;;5118724;27;20341;-74
2021/03/31 07:00:49;;;;;;;29.40;23.42;;;9.30;60.60;;;;;;5082025;28;20054;-74
2021/03/31 07:03:14;;;;;;;27.98;23.90;;;9.30;60.50;;;;;;5123897;27;20057;-77
2021/03/31 07:05:40;;;;;;;31.50;23.33;;;9.30;60.50;;;;;;5112995;27;20047;-74
2021/03/31 07:08:08;;;;;;;20.63;15.20;;;9.30;60.30;;;;;;5111834;27;20398;-74
2021/03/31 07:10:50;;;;;;;30.00;21.15;;;10.00;63.00;;;;;;5084780;27;20106;-77
2021/03/31 07:13:28;;;;;;;26.80;22.10;;;10.50;60.70;;;;;;5125128;27;20101;-78
2021/03/31 07:15:59;;;;;;;30.20;23.42;;;10.60;58.30;;;;;;5128095;27;20114;-78
2021/03/31 07:18:26;;;;;;;30.50;24.27;;;10.60;57.50;;;;;;5128336;27;20146;-78
2021/03/31 07:20:52;;;;;;;30.42;23.95;;;10.60;57.20;;;;;;5131057;27;20069;-77
2021/03/31 07:23:22;;;;;;;31.25;23.08;;;10.60;57.50;;;;;;5101701;27;20479;-78
2021/03/31 07:25:49;;;;;;;30.00;23.73;;;10.60;56.60;;;;;;5116792;27;20051;-79
2021/03/31 07:28:24;;;;;;;32.17;24.20;;;10.50;56.50;;;;;;5094219;28;20060;-81
2021/03/31 07:30:50;;;;;;;31.02;25.70;;;10.50;56.30;;;;;;5098923;28;20044;-77
2021/03/31 07:33:18;;;;;;;32.20;26.40;;;10.50;56.40;;;;;;5115619;28;20043;-76
2021/03/31 07:35:44;;;;;;;30.38;24.23;;;10.50;56.50;;;;;;5097518;28;20088;-76
2021/03/31 07:38:12;;;;;;;30.95;24.02;;;10.60;57.00;;;;;;5113550;28;20035;-76
2021/03/31 07:40:37;;;;;;;31.00;26.20;;;10.60;57.20;;;;;;5110296;28;20197;-76
2021/03/31 07:43:05;;;;;;;34.45;26.88;;;10.60;57.40;;;;;;5114346;28;20080;-76
2021/03/31 07:45:36;;;;;;;32.88;25.77;;;10.60;57.70;;;;;;5108591;28;20047;-76
2021/03/31 07:48:01;;;;;;;29.35;25.70;;;10.70;57.70;;;;;;5100088;28;20059;-79
2021/03/31 07:50:27;;;;;;;32.38;25.95;;;10.70;57.70;;;;;;5116163;28;20067;-76
2021/03/31 07:52:57;;;;;;;33.63;26.95;;;10.70;57.90;;;;;;5108777;28;20123;-79
2021/03/31 07:55:43;;;;;;;33.17;27.77;;;10.80;58.20;;;;;;5113235;28;20134;-78
2021/03/31 07:58:12;;;;;;;31.25;26.48;;;10.80;58.50;;;;;;5112424;28;20479;-78
2021/03/31 08:01:07;;;;;;;30.52;26.52;;;10.90;58.60;;;;;;5115125;28;20050;-77
2021/03/31 08:03:41;;;;;;;33.10;26.40;;;10.90;58.70;;;;;;5114646;28;20042;-77
2021/03/31 08:06:11;;;;;;;33.55;26.92;;;11.00;58.80;;;;;;5107123;28;20891;-77
2021/03/31 08:08:43;;;;;;;33.13;26.58;;;11.10;59.00;;;;;;5112976;28;20066;-77
2021/03/31 08:11:09;;;;;;;;;;;11.10;58.80;;;;;;5109045;28;20081;-75
2021/03/31 08:13:38;;;;;;;39.83;16.92;;;11.20;59.50;;;;;;5111526;28;19920;-77
2021/03/31 08:16:51;;;;;;;34.67;23.75;;;11.40;60.90;;;;;;5111514;28;20039;-76
2021/03/31 08:19:21;;;;;;;32.70;26.17;;;11.60;60.00;;;;;;5107588;28;20047;-76
2021/03/31 08:21:48;;;;;;;33.17;26.30;;;11.70;58.80;;;;;;5106261;28;20543;-78
2021/03/31 08:24:16;;;;;;;34.10;27.33;;;11.80;58.30;;;;;;5115878;28;20035;-77
2021/03/31 08:26:45;;;;;;;30.65;26.88;;;11.90;58.50;;;;;;5107719;28;20048;-82
2021/03/31 08:29:17;;;;;;;34.22;26.95;;;12.00;58.40;;;;;;5096386;28;20111;-75
2021/03/31 08:31:43;;;;;;;34.03;28.87;;;12.00;58.00;;;;;;5128342;27;20039;-74
2021/03/31 08:34:09;;;;;;;30.88;26.30;;;12.10;57.60;;;;;;5130793;27;20038;-72
2021/03/31 08:36:36;;;;;;;33.15;26.65;;;12.10;57.40;;;;;;5113734;27;20055;-72
2021/03/31 08:39:06;;;;;;;33.53;27.20;;;12.20;57.30;;;;;;5111490;28;20076;-71
2021/03/31 08:41:31;;;;;;;31.23;27.52;;;12.30;57.20;;;;;;5126563;27;20142;-72
2021/03/31 08:44:42;;;;;;;31.50;26.80;;;12.40;57.60;;;;;;5122189;27;20084;-72
2021/03/31 08:47:11;;;;;;;35.22;28.30;;;12.50;57.60;;;;;;5033208;28;20097;-73
2021/03/31 08:49:37;;;;;;;32.33;28.60;;;12.60;57.20;;;;;;5122239;27;20055;-73
2021/03/31 08:52:07;;;;;;;35.05;28.50;;;12.70;57.40;;;;;;5127011;27;20481;-73
2021/03/31 08:54:37;;;;;;;32.13;28.73;;;12.70;57.40;;;;;;5104599;27;20043;-72
2021/03/31 08:57:07;;;;;;;31.15;27.70;;;12.80;57.30;;;;;;5098760;28;20046;-71
2021/03/31 08:59:37;;;;;;;35.40;29.00;;;13.00;57.70;;;;;;5095368;27;20084;-72
2021/03/31 09:02:04;;;;;;;36.58;23.55;;;13.00;56.90;;;;;;5108244;27;20125;-76
2021/03/31 09:04:31;;;;;;;32.38;27.65;;;13.10;57.10;;;;;;5137338;27;20096;-74
2021/03/31 09:06:57;;;;;;;35.47;28.92;;;13.30;57.30;;;;;;5111326;28;20035;-76
2021/03/31 09:09:23;;;;;;;35.30;29.40;;;13.40;57.20;;;;;;5084827;27;20130;-74
2021/03/31 09:12:03;;;;;;;33.20;28.17;;;13.50;57.10;;;;;;5119546;27;20054;-71
2021/03/31 09:14:29;;;;;;;37.10;29.90;;;13.50;57.10;;;;;;5106520;28;20114;-73
2021/03/31 09:17:02;;;;;;;33.88;29.13;;;13.60;56.80;;;;;;5112894;28;20066;-75
2021/03/31 09:19:36;;;;;;;35.50;29.20;;;13.80;57.10;;;;;;5131771;27;20466;-72
2021/03/31 09:22:16;;;;;;;34.33;28.98;;;13.90;56.60;;;;;;5095674;27;20039;-74
2021/03/31 09:24:43;;;;;;;33.65;29.42;;;13.90;56.30;;;;;;5101214;28;20047;-76
2021/03/31 09:27:14;;;;;;;35.67;30.48;;;14.00;56.50;;;;;;5110691;27;20387;-75
2021/03/31 09:29:44;;;;;;;19.65;12.40;;;14.10;56.50;;;;;;5134755;27;20063;-75
2021/03/31 09:32:19;;;;;;;22.40;15.30;;;14.30;57.40;;;;;;5131234;27;20050;-73
2021/03/31 09:34:45;;;;;;;25.60;19.73;;;14.60;58.30;;;;;;5115290;27;20043;-72
2021/03/31 09:37:15;;;;;;;23.33;17.42;;;14.90;57.00;;;;;;5116207;28;20460;-70
2021/03/31 09:39:53;;;;;;;25.25;19.38;;;15.10;56.70;;;;;;5118512;28;20044;-72
2021/03/31 09:42:23;;;;;;;24.33;20.65;;;15.40;56.20;;;;;;5139014;28;20039;-73
2021/03/31 09:44:50;;;;;;;24.55;20.33;;;15.60;55.50;;;;;;5103601;28;20044;-72
2021/03/31 09:47:16;;;;;;;25.95;20.08;;;15.80;55.10;;;;;;5115744;28;20039;-72
2021/03/31 09:49:43;;;;;;;26.48;23.50;;;16.00;54.70;;;;;;5132910;28;20054;-71
2021/03/31 09:52:09;;;;;;;28.90;23.27;;;16.20;54.30;;;;;;5070042;28;20088;-72
2021/03/31 09:54:35;;;;;;;28.55;25.33;;;16.30;53.90;;;;;;5120680;28;20043;-73
2021/03/31 09:57:01;;;;;;;27.33;20.73;;;16.50;53.40;;;;;;5121229;28;20043;-74
2021/03/31 09:59:26;;;;;;;29.25;26.13;;;16.60;53.00;;;;;;5103175;28;20047;-72
2021/03/31 10:01:52;;;;;;;26.23;21.65;;;16.80;52.70;;;;;;5103880;28;20111;-70
2021/03/31 10:04:18;;;;;;;26.33;23.05;;;16.90;52.50;;;;;;5106381;28;20134;-71
2021/03/31 10:06:44;;;;;;;33.63;28.33;;;17.10;52.70;;;;;;5129431;27;20461;-72
2021/03/31 10:09:17;;;;;;;37.38;31.25;;;17.20;52.20;;;;;;5138797;27;20063;-72
2021/03/31 10:11:42;;;;;;;33.45;29.92;;;17.40;51.50;;;;;;5140130;27;20051;-72
2021/03/31 10:14:21;;;;;;;34.10;29.98;;;17.60;51.60;;;;;;5124138;27;20142;-73
2021/03/31 10:16:48;;;;;;;32.90;29.40;;;17.80;50.20;;;;;;5129330;27;20138;-73
2021/03/31 10:19:14;;;;;;;34.63;29.63;;;18.00;50.30;;;;;;5104835;27;20051;-72
2021/03/31 10:21:41;;;;;;;33.90;29.42;;;18.10;50.10;;;;;;5141929;27;20106;-73
2021/03/31 10:24:07;;;;;;;32.72;29.10;;;18.30;49.90;;;;;;5121078;27;20063;-73
2021/03/31 10:26:36;;;;;;;36.22;30.08;;;18.50;50.00;;;;;;5107442;28;20133;-72
2021/03/31 10:29:03;;;;;;;34.80;30.45;;;18.70;49.80;;;;;;5137354;27;20368;-73
2021/03/31 10:31:33;;;;;;;36.47;31.90;;;18.90;49.50;;;;;;5102096;27;20126;-72
2021/03/31 10:33:59;;;;;;;36.30;32.10;;;19.00;48.90;;;;;;5137146;27;20115;-72
2021/03/31 10:36:42;;;;;;;34.30;30.65;;;19.10;48.50;;;;;;5102128;27;20396;-74
2021/03/31 10:48:13;;;;;;;37.85;30.58;;;19.80;48.40;;;;;;5070304;28;20047;-74
2021/03/31 10:53:12;;;;;;;37.00;33.10;;;20.10;47.20;;;;;;5136524;27;20546;-74
2021/03/31 10:55:41;;;;;;;39.88;32.22;;;20.30;46.50;;;;;;5133585;27;20114;-77
2021/03/31 10:58:07;;;;;;;34.58;30.98;;;20.40;46.50;;;;;;5133675;27;20387;-73
2021/03/31 11:00:35;;;;;;;39.10;30.77;;;20.50;46.30;;;;;;5115222;27;20077;-74
2021/03/31 11:03:00;;;;;;;31.80;28.45;;;20.60;45.90;;;;;;5112256;27;20070;-72
2021/03/31 11:05:26;;;;;;;35.35;30.42;;;20.80;46.10;;;;;;5130527;27;20479;-74
2021/03/31 11:07:52;;;;;;;36.00;30.73;;;21.00;45.70;;;;;;5132256;27;20062;-74
2021/03/31 11:10:18;;;;;;;35.83;29.13;;;21.10;45.10;;;;;;5131260;27;20139;-76
2021/03/31 11:12:43;;;;;;;59.20;32.40;;;21.30;44.40;;;;;;5133071;27;20038;-74
2021/03/31 11:15:16;;;;;;;42.42;27.35;;;21.40;43.60;;;;;;5121278;27;20035;-75
2021/03/31 11:18:00;;;;;;;41.03;28.75;;;21.60;43.90;;;;;;5130859;27;20043;-70
2021/03/31 11:20:48;;;;;;;36.88;29.02;;;21.80;43.20;;;;;;5119287;27;20039;-72
2021/03/31 11:26:17;;;;;;;32.45;27.45;;;22.20;42.00;;;;;;5098341;27;20043;-75
2021/03/31 11:28:43;;;;;;;35.38;26.83;;;22.40;41.30;;;;;;5098896;28;20055;-75
2021/03/31 11:31:09;;;;;;;32.35;28.92;;;22.60;41.10;;;;;;5091619;28;20044;-73
2021/03/31 11:33:55;;;;;;;39.85;28.85;;;22.80;40.90;;;;;;5050993;28;20493;-75
2021/03/31 11:36:20;;;;;;;35.55;28.00;;;23.10;40.80;;;;;;5086440;28;20051;-75
2021/03/31 11:38:47;;;;;;;32.72;25.30;;;23.20;39.80;;;;;;5073701;28;20047;-75
2021/03/31 11:41:12;;;;;;;30.73;24.42;;;23.40;39.50;;;;;;5075018;28;20059;-74
2021/03/31 11:43:58;;;;;;;27.02;23.15;;;23.60;39.20;;;;;;5085241;28;20450;-74
2021/03/31 11:46:24;;;;;;;27.95;25.02;;;23.80;38.80;;;;;;5087610;28;20041;-74
2021/03/31 11:48:49;;;;;;;27.55;24.58;;;24.00;38.50;;;;;;5090384;28;20068;-76
2021/03/31 11:51:35;;;;;;;27.20;23.75;;;24.20;38.60;;;;;;5084132;28;20439;-74
2021/03/31 11:54:01;;;;;;;29.75;25.77;;;24.40;38.00;;;;;;5077108;28;20085;-75
2021/03/31 11:56:47;;;;;;;30.45;27.08;;;24.60;37.40;;;;;;5090115;28;20048;-74
2021/03/31 11:59:12;;;;;;;34.28;30.33;;;24.70;37.10;;;;;;5090243;28;20040;-71
2021/03/31 12:01:38;;;;;;;35.15;27.33;;;24.90;36.40;;;;;;5090662;28;20040;-75
2021/03/31 12:04:24;;;;;;;29.10;25.15;;;25.00;36.60;;;;;;5066723;28;20064;-74
2021/03/31 12:06:49;;;;;;;28.38;24.42;;;25.20;36.20;;;;;;5081224;28;20040;-72
2021/03/31 12:09:15;;;;;;;25.90;22.92;;;25.30;35.80;;;;;;5080640;28;20039;-71
2021/03/31 12:12:01;;;;;;;28.67;25.50;;;25.40;35.70;;;;;;5076652;28;20064;-72
2021/03/31 12:14:27;;;;;;;32.05;25.48;;;25.60;35.10;;;;;;5091662;28;20389;-72
2021/03/31 12:16:52;;;;;;;28.55;23.73;;;25.60;34.10;;;;;;5088304;28;20048;-73
2021/03/31 12:19:39;;;;;;;27.63;24.65;;;25.70;34.00;;;;;;5087949;28;20059;-72
2021/03/31 12:22:05;;;;;;;27.98;23.67;;;25.80;33.60;;;;;;5092976;28;20036;-72
2021/03/31 12:24:50;;;;;;;25.75;23.00;;;26.00;33.80;;;;;;5076901;28;20052;-73
2021/03/31 12:27:21;;;;;;;28.25;24.23;;;26.20;33.80;;;;;;5089936;28;20130;-72
2021/03/31 12:30:08;;;;;;;30.13;24.33;;;26.10;32.70;;;;;;5117638;27;20062;-72
2021/03/31 12:32:34;;;;;;;25.80;22.85;;;26.20;32.20;;;;;;5132781;27;20035;-71
2021/03/31 12:35:21;;;;;;;29.38;23.10;;;26.30;31.20;;;;;;5115624;27;20390;-73
2021/03/31 12:37:46;;;;;;;27.60;22.52;;;26.30;30.20;;;;;;5131394;27;20046;-72
2021/03/31 12:40:12;;;;;;;28.80;22.48;;;26.40;29.70;;;;;;5133062;27;20035;-73
2021/03/31 12:42:58;;;;;;;25.58;21.13;;;26.40;30.00;;;;;;5098604;27;20043;-72
2021/03/31 12:45:24;;;;;;;28.70;23.20;;;26.40;29.90;;;;;;5115108;27;20039;-73
2021/03/31 12:48:10;;;;;;;23.70;19.92;;;26.50;30.00;;;;;;5072600;27;20126;-72
2021/03/31 12:51:02;;;;;;;21.33;18.23;;;26.50;30.00;;;;;;5117313;27;20497;-72
2021/03/31 12:53:32;;;;;;;22.42;19.50;;;26.40;28.60;;;;;;5115451;27;20042;-73
2021/03/31 12:56:20;;;;;;;22.20;17.80;;;26.40;29.10;;;;;;5118141;27;20047;-72